createdAt,value
2022-08-08T00:01:08.040Z,17.11
2022-08-08T00:03:48.067Z,17.12
2022-08-08T00:06:28.471Z,17.17
2022-08-08T00:09:12.030Z,17.12
2022-08-08T00:12:09.782Z,16.85
2022-08-08T00:15:00.221Z,17.00
2022-08-08T00:18:02.437Z,16.93
2022-08-08T00:20:36.293Z,16.92
2022-08-08T00:23:08.170Z,16.87
2022-08-08T00:25:46.555Z,16.97
2022-08-08T00:28:35.417Z,16.90
2022-08-08T00:32:20.480Z,16.92
2022-08-08T00:34:31.386Z,16.92
2022-08-08T00:37:45.043Z,16.84
2022-08-08T00:41:09.988Z,16.80
2022-08-08T00:43:56.279Z,16.81
2022-08-08T00:47:13.935Z,16.74
2022-08-08T00:50:11.537Z,16.82
2022-08-08T00:52:53.934Z,16.75
2022-08-08T00:55:53.149Z,16.80
2022-08-08T00:58:54.658Z,16.86
2022-08-08T01:01:38.409Z,16.71
2022-08-08T01:04:33.938Z,16.69
2022-08-08T01:07:55.942Z,16.58
2022-08-08T01:11:06.420Z,16.58
2022-08-08T01:14:08.566Z,16.46
2022-08-08T01:17:07.845Z,16.37
2022-08-08T01:20:14.695Z,16.30
2022-08-08T01:24:03.778Z,16.28
2022-08-08T01:26:35.664Z,16.36
2022-08-08T01:29:59.102Z,16.26
2022-08-08T01:33:01.062Z,16.24
2022-08-08T01:36:10.189Z,16.17
2022-08-08T01:39:07.154Z,16.11
2022-08-08T01:41:58.704Z,16.04
2022-08-08T01:44:43.218Z,16.00
2022-08-08T01:48:14.824Z,16.03
2022-08-08T01:50:34.741Z,16.05
2022-08-08T01:53:14.405Z,16.06
2022-08-08T01:56:30.613Z,16.06
2022-08-08T01:59:38.217Z,16.05
2022-08-08T02:02:45.756Z,15.97
2022-08-08T02:05:33.893Z,15.91
2022-08-08T02:08:34.091Z,15.87
2022-08-08T02:11:23.516Z,15.80
2022-08-08T02:13:56.659Z,15.77
2022-08-08T02:16:35.300Z,15.74
2022-08-08T02:19:41.451Z,15.70
2022-08-08T02:22:28.272Z,15.72
2022-08-08T02:25:11.588Z,15.56
2022-08-08T02:27:45.089Z,15.60
2022-08-08T02:30:20.787Z,15.53
2022-08-08T02:33:21.470Z,15.54
2022-08-08T02:36:04.425Z,15.53
2022-08-08T02:39:01.041Z,15.69
2022-08-08T02:41:59.424Z,15.61
2022-08-08T02:44:58.003Z,15.65
2022-08-08T02:48:04.051Z,15.64
2022-08-08T02:51:04.125Z,15.54
2022-08-08T02:53:50.723Z,15.55
2022-08-08T02:56:53.390Z,15.42
2022-08-08T02:59:57.562Z,15.39
2022-08-08T03:03:13.753Z,15.48
2022-08-08T03:06:24.206Z,15.46
2022-08-08T03:09:41.363Z,15.43
2022-08-08T03:13:00.978Z,15.41
2022-08-08T03:16:05.253Z,15.42
2022-08-08T03:18:39.256Z,15.30
2022-08-08T03:21:09.678Z,15.27
2022-08-08T03:23:56.285Z,15.31
2022-08-08T03:26:32.721Z,15.31
2022-08-08T03:29:17.135Z,15.32
2022-08-08T03:32:08.396Z,15.24
2022-08-08T03:34:37.763Z,15.17
2022-08-08T03:38:00.255Z,15.05
2022-08-08T03:40:02.403Z,15.11
2022-08-08T03:42:31.944Z,15.08
2022-08-08T03:44:59.864Z,15.00
2022-08-08T03:47:39.703Z,14.92
2022-08-08T03:50:19.673Z,14.89
2022-08-08T03:52:48.769Z,14.83
2022-08-08T03:55:57.550Z,14.83
2022-08-08T03:58:32.185Z,14.85
2022-08-08T04:01:02.033Z,14.73
2022-08-08T04:03:57.222Z,14.88
2022-08-08T04:06:29.287Z,14.82
2022-08-08T04:08:57.328Z,14.78
2022-08-08T04:11:26.572Z,14.77
2022-08-08T04:14:03.191Z,14.74
2022-08-08T04:16:49.223Z,14.94
2022-08-08T04:19:25.272Z,14.98
2022-08-08T04:21:54.524Z,14.90
2022-08-08T04:24:29.384Z,14.86
2022-08-08T04:27:00.554Z,14.87
2022-08-08T04:29:36.655Z,14.83
2022-08-08T04:32:06.889Z,14.88
2022-08-08T04:34:56.073Z,14.91
2022-08-08T04:37:31.817Z,15.08
2022-08-08T04:40:06.449Z,15.20
2022-08-08T04:42:37.266Z,15.38
2022-08-08T04:45:06.259Z,15.46
2022-08-08T04:47:36.776Z,15.49
2022-08-08T04:50:14.462Z,15.58
2022-08-08T04:53:00.873Z,15.61
2022-08-08T04:55:47.291Z,15.66
2022-08-08T04:58:18.013Z,15.84
2022-08-08T05:00:48.431Z,15.88
2022-08-08T05:03:19.189Z,15.99
2022-08-08T05:06:12.575Z,16.16
2022-08-08T05:08:51.938Z,16.15
2022-08-08T05:11:22.878Z,16.37
2022-08-08T05:13:57.840Z,16.48
2022-08-08T05:16:51.030Z,16.54
2022-08-08T05:20:09.998Z,16.67
2022-08-08T05:22:04.861Z,16.68
2022-08-08T05:24:34.676Z,16.80
2022-08-08T05:27:06.141Z,16.88
2022-08-08T05:29:36.894Z,16.92
2022-08-08T05:32:07.717Z,17.05
2022-08-08T05:34:37.917Z,17.21
2022-08-08T05:37:07.619Z,17.11
2022-08-08T05:39:50.508Z,17.52
2022-08-08T05:42:19.338Z,17.58
2022-08-08T05:44:51.490Z,17.69
2022-08-08T05:47:21.872Z,17.91
2022-08-08T05:49:54.328Z,17.83
2022-08-08T05:52:32.132Z,18.05
2022-08-08T05:55:07.434Z,18.14
2022-08-08T05:58:05.590Z,18.32
2022-08-08T06:00:34.190Z,18.38
2022-08-08T06:03:17.559Z,18.36
2022-08-08T06:05:56.646Z,18.35
2022-08-08T06:08:34.639Z,18.68
2022-08-08T06:11:04.251Z,18.89
2022-08-08T06:13:36.433Z,18.90
2022-08-08T06:16:16.711Z,19.16
2022-08-08T06:18:50.228Z,19.00
2022-08-08T06:21:32.432Z,19.11
2022-08-08T06:24:13.830Z,19.27
2022-08-08T06:26:57.838Z,19.53
2022-08-08T06:29:56.511Z,19.62
2022-08-08T06:32:26.210Z,19.96
2022-08-08T06:35:34.975Z,20.17
2022-08-08T06:37:46.929Z,19.80
2022-08-08T06:40:26.726Z,20.31
2022-08-08T06:42:57.819Z,20.44
2022-08-08T06:45:26.556Z,20.47
2022-08-08T06:48:01.021Z,20.38
2022-08-08T06:50:33.399Z,20.22
2022-08-08T06:53:14.202Z,20.22
2022-08-08T06:56:02.759Z,20.71
2022-08-08T06:58:33.386Z,20.55
2022-08-08T07:01:52.330Z,21.06
2022-08-08T07:04:36.819Z,21.24
2022-08-08T07:06:51.502Z,20.86
2022-08-08T07:09:21.600Z,20.94
2022-08-08T07:11:51.974Z,21.50
2022-08-08T07:14:27.647Z,21.85
2022-08-08T07:17:09.104Z,21.60
2022-08-08T07:19:44.529Z,22.24
2022-08-08T07:22:18.706Z,22.18
2022-08-08T07:24:53.599Z,22.26
2022-08-08T07:27:27.717Z,21.77
2022-08-08T07:30:09.892Z,22.65
2022-08-08T07:32:42.710Z,22.73
2022-08-08T07:35:14.125Z,22.99
2022-08-08T07:38:04.235Z,22.64
2022-08-08T07:40:32.934Z,22.31
2022-08-08T07:43:04.193Z,22.71
2022-08-08T07:46:04.858Z,22.34
2022-08-08T07:48:29.794Z,22.64
2022-08-08T07:51:01.285Z,22.40
2022-08-08T07:54:01.181Z,23.00
2022-08-08T07:56:36.185Z,23.51
2022-08-08T07:59:14.285Z,23.63
2022-08-08T08:02:33.050Z,23.23
2022-08-08T08:04:46.656Z,23.45
2022-08-08T08:07:19.235Z,24.08
2022-08-08T08:09:56.340Z,23.89
2022-08-08T08:12:31.573Z,23.75
2022-08-08T08:15:06.776Z,24.37
2022-08-08T08:17:47.816Z,24.50
2022-08-08T08:20:20.709Z,24.69
2022-08-08T08:22:49.949Z,24.42
2022-08-08T08:25:35.841Z,25.03
2022-08-08T08:28:09.313Z,25.06
2022-08-08T08:30:37.683Z,25.42
2022-08-08T08:33:05.861Z,24.72
2022-08-08T08:36:19.955Z,25.17
2022-08-08T08:38:29.024Z,25.70
2022-08-08T08:40:56.839Z,25.74
2022-08-08T08:43:26.926Z,25.89
2022-08-08T08:45:57.904Z,26.59
2022-08-08T08:48:26.088Z,25.79
2022-08-08T08:50:55.650Z,25.51
2022-08-08T08:53:27.686Z,26.46
2022-08-08T08:56:18.362Z,26.89
2022-08-08T08:58:53.309Z,26.17
2022-08-08T09:01:27.709Z,25.84
2022-08-08T09:04:01.379Z,26.19
2022-08-08T09:06:38.386Z,26.49
2022-08-08T09:09:26.344Z,26.52
2022-08-08T09:12:08.727Z,26.61
2022-08-08T09:14:42.776Z,26.23
2022-08-08T09:17:18.280Z,25.58
2022-08-08T09:21:59.115Z,26.63
2022-08-08T09:22:36.674Z,26.18
2022-08-08T09:25:09.589Z,26.96
2022-08-08T09:27:56.495Z,26.41
2022-08-08T09:30:27.868Z,26.50
2022-08-08T09:33:54.476Z,26.71
2022-08-08T09:35:49.048Z,27.54
2022-08-08T09:38:32.119Z,27.64
2022-08-08T09:41:05.456Z,27.85
2022-08-08T09:44:06.406Z,27.71
2022-08-08T09:46:38.897Z,27.87
2022-08-08T09:49:42.067Z,26.57
2022-08-08T09:52:06.079Z,27.51
2022-08-08T09:54:42.443Z,27.85
2022-08-08T09:57:17.488Z,28.55
2022-08-08T10:00:28.745Z,28.41
2022-08-08T10:02:41.875Z,27.23
2022-08-08T10:05:22.964Z,27.60
2022-08-08T10:07:59.752Z,28.12
2022-08-08T10:10:32.337Z,27.56
2022-08-08T10:13:06.196Z,28.26
2022-08-08T10:16:01.025Z,28.31
2022-08-08T10:18:31.160Z,28.25
2022-08-08T10:21:22.641Z,28.30
2022-08-08T10:23:58.348Z,28.93
2022-08-08T10:26:58.615Z,28.97
2022-08-08T10:29:28.233Z,28.84
2022-08-08T10:32:28.153Z,29.01
2022-08-08T10:35:01.296Z,29.20
2022-08-08T10:37:30.732Z,29.13
2022-08-08T10:39:59.982Z,30.08
2022-08-08T10:42:37.716Z,29.30
2022-08-08T10:45:16.040Z,30.21
2022-08-08T10:47:55.373Z,29.52
2022-08-08T10:50:31.099Z,29.34
2022-08-08T10:53:03.311Z,30.60
2022-08-08T10:55:39.480Z,30.57
2022-08-08T10:58:09.795Z,30.78
2022-08-08T11:00:48.597Z,30.70
2022-08-08T11:03:52.279Z,30.57
2022-08-08T11:06:12.352Z,29.85
2022-08-08T11:08:53.257Z,30.60
2022-08-08T11:11:31.635Z,30.54
2022-08-08T11:14:03.934Z,29.26
2022-08-08T11:16:35.240Z,29.59
2022-08-08T11:19:06.123Z,31.27
2022-08-08T11:21:41.134Z,32.33
2022-08-08T11:24:11.173Z,30.98
2022-08-08T11:26:56.720Z,31.20
2022-08-08T11:29:29.467Z,31.72
2022-08-08T11:32:17.046Z,32.44
2022-08-08T11:35:08.322Z,33.91
2022-08-08T11:38:35.386Z,33.14
2022-08-08T11:40:28.384Z,33.80
2022-08-08T11:43:01.272Z,34.18
2022-08-08T11:45:36.734Z,35.76
2022-08-08T11:48:20.394Z,36.13
2022-08-08T11:50:52.584Z,35.90
2022-08-08T11:53:24.391Z,35.48
2022-08-08T11:55:53.662Z,34.37
2022-08-08T11:58:33.749Z,34.22
2022-08-08T12:01:12.334Z,35.44
2022-08-08T12:03:47.831Z,35.93
2022-08-08T12:06:17.782Z,35.55
2022-08-08T12:08:46.583Z,35.01
2022-08-08T12:11:22.984Z,35.91
2022-08-08T12:14:04.694Z,35.23
2022-08-08T12:16:42.038Z,35.33
2022-08-08T12:19:14.718Z,35.33
2022-08-08T12:22:00.553Z,35.33
2022-08-08T12:24:32.298Z,36.79
2022-08-08T12:27:00.081Z,36.23
2022-08-08T12:29:42.035Z,37.59
2022-08-08T12:32:16.936Z,37.10
2022-08-08T12:34:50.670Z,35.24
2022-08-08T12:37:41.048Z,35.18
2022-08-08T12:40:22.561Z,34.16
2022-08-08T12:42:51.238Z,34.81
2022-08-08T12:45:58.873Z,34.76
2022-08-08T12:48:18.161Z,34.27
2022-08-08T12:50:58.602Z,34.45
2022-08-08T12:53:37.910Z,34.71
2022-08-08T12:56:18.700Z,32.61
2022-08-08T12:58:50.690Z,34.13
2022-08-08T13:01:29.537Z,33.99
2022-08-08T13:04:18.515Z,33.71
2022-08-08T13:07:00.895Z,35.73
2022-08-08T13:09:34.235Z,36.41
2022-08-08T13:12:30.101Z,34.56
2022-08-08T13:15:02.200Z,34.39
2022-08-08T13:17:54.132Z,35.54
2022-08-08T13:20:21.816Z,34.64
2022-08-08T13:22:51.552Z,34.90
2022-08-08T13:25:28.796Z,35.89
2022-08-08T13:28:00.810Z,34.71
2022-08-08T13:30:28.783Z,35.44
2022-08-08T13:32:57.566Z,34.71
2022-08-08T13:35:29.709Z,33.78
2022-08-08T13:38:08.551Z,35.10
2022-08-08T13:40:44.940Z,34.94
2022-08-08T13:43:13.821Z,34.45
2022-08-08T13:45:47.606Z,35.32
2022-08-08T13:48:17.119Z,36.00
2022-08-08T13:50:53.691Z,35.73
2022-08-08T13:53:33.871Z,35.49
2022-08-08T13:56:11.792Z,35.23
2022-08-08T13:58:56.335Z,35.80
2022-08-08T14:01:32.861Z,36.72
2022-08-08T14:04:22.329Z,35.99
2022-08-08T14:06:58.750Z,35.93
2022-08-08T14:10:05.497Z,36.67
2022-08-08T14:12:25.922Z,35.76
2022-08-08T14:14:56.015Z,35.32
2022-08-08T14:17:57.123Z,33.85
2022-08-08T14:20:15.727Z,34.41
2022-08-08T14:23:10.251Z,34.35
2022-08-08T14:25:54.121Z,34.60
2022-08-08T14:28:29.200Z,35.93
2022-08-08T14:31:09.346Z,35.61
2022-08-08T14:33:39.035Z,36.40
2022-08-08T14:36:09.567Z,34.37
2022-08-08T14:38:51.775Z,35.57
2022-08-08T14:41:53.232Z,35.62
2022-08-08T14:44:17.010Z,34.35
2022-08-08T14:47:00.372Z,34.15
2022-08-08T14:49:37.865Z,33.65
2022-08-08T14:52:23.810Z,33.59
2022-08-08T14:54:51.768Z,33.73
2022-08-08T14:57:20.761Z,34.10
2022-08-08T15:00:12.204Z,34.43
2022-08-08T15:02:58.565Z,34.90
2022-08-08T15:05:33.988Z,35.25
2022-08-08T15:08:22.024Z,33.97
2022-08-08T15:10:58.658Z,33.79
2022-08-08T15:13:26.679Z,33.09
2022-08-08T15:16:11.721Z,31.89
2022-08-08T15:18:43.997Z,32.66
2022-08-08T15:21:17.987Z,33.06
2022-08-08T15:23:51.227Z,33.22
2022-08-08T15:26:19.822Z,32.47
2022-08-08T15:28:53.330Z,31.79
2022-08-08T15:31:26.046Z,31.21
2022-08-08T15:34:29.078Z,30.85
2022-08-08T15:36:58.009Z,30.36
2022-08-08T15:39:26.013Z,29.54
2022-08-08T15:41:54.725Z,29.65
2022-08-08T15:44:22.643Z,28.92
2022-08-08T15:46:51.976Z,29.05
2022-08-08T15:49:21.126Z,28.98
2022-08-08T15:51:51.899Z,28.63
2022-08-08T15:54:38.733Z,28.05
2022-08-08T15:57:09.464Z,27.81
2022-08-08T16:00:06.362Z,27.70
2022-08-08T16:02:31.024Z,28.16
2022-08-08T16:04:59.648Z,28.40
2022-08-08T16:07:39.437Z,27.81
2022-08-08T16:13:20.911Z,27.61
2022-08-08T16:13:30.147Z,27.51
2022-08-08T16:15:58.926Z,27.68
2022-08-08T16:18:33.012Z,27.63
2022-08-08T16:21:01.431Z,27.44
2022-08-08T16:23:32.359Z,27.30
2022-08-08T16:26:03.826Z,27.14
2022-08-08T16:28:35.266Z,26.83
2022-08-08T16:31:07.972Z,27.20
2022-08-08T16:33:40.327Z,27.04
2022-08-08T16:36:09.710Z,27.14
2022-08-08T16:38:47.714Z,27.08
2022-08-08T16:41:22.742Z,27.26
2022-08-08T16:43:53.046Z,27.20
2022-08-08T16:46:37.516Z,27.07
2022-08-08T16:49:10.534Z,26.74
2022-08-08T16:55:02.071Z,26.84
2022-08-08T16:55:23.877Z,26.62
2022-08-08T16:57:23.664Z,26.32
2022-08-08T17:00:09.151Z,26.51
2022-08-08T17:02:41.935Z,26.62
2022-08-08T17:05:12.933Z,26.53
2022-08-08T17:07:41.750Z,26.49
2022-08-08T17:10:11.565Z,26.54
2022-08-08T17:12:52.537Z,26.50
2022-08-08T17:15:22.956Z,26.63
2022-08-08T17:18:02.993Z,26.43
2022-08-08T17:20:38.150Z,26.33
2022-08-08T17:23:17.976Z,26.27
2022-08-08T17:25:56.066Z,26.12
2022-08-08T17:28:34.899Z,26.17
2022-08-08T17:31:39.552Z,26.13
2022-08-08T17:34:35.919Z,26.18
2022-08-08T17:37:01.092Z,26.06
2022-08-08T17:40:03.495Z,25.94
2022-08-08T17:42:16.181Z,25.92
2022-08-08T17:44:46.443Z,25.91
2022-08-08T17:47:23.726Z,25.85
2022-08-08T17:49:53.070Z,25.91
2022-08-08T17:52:30.980Z,25.75
2022-08-08T17:54:58.838Z,25.68
2022-08-08T17:57:28.970Z,25.54
2022-08-08T18:00:03.728Z,25.49
2022-08-08T18:02:31.498Z,25.45
2022-08-08T18:05:00.967Z,25.39
2022-08-08T18:08:01.823Z,25.33
2022-08-08T18:10:31.592Z,25.27
2022-08-08T18:13:01.798Z,25.30
2022-08-08T18:15:31.247Z,25.31
2022-08-08T18:18:10.049Z,25.36
2022-08-08T18:20:59.425Z,25.25
2022-08-08T18:23:29.122Z,25.19
2022-08-08T18:26:01.546Z,25.11
2022-08-08T18:28:34.882Z,24.99
2022-08-08T18:31:19.667Z,24.96
2022-08-08T18:34:12.236Z,24.83
2022-08-08T18:36:35.970Z,24.61
2022-08-08T18:39:05.710Z,24.49
2022-08-08T18:41:51.699Z,24.48
2022-08-08T18:44:21.590Z,24.35
2022-08-08T18:46:58.035Z,24.32
2022-08-08T18:49:32.555Z,24.23
2022-08-08T18:52:18.293Z,24.12
2022-08-08T18:55:00.685Z,24.05
2022-08-08T18:57:36.774Z,23.84
2022-08-08T19:00:09.551Z,23.59
2022-08-08T19:02:54.774Z,23.20
2022-08-08T19:05:30.645Z,23.04
2022-08-08T19:08:08.544Z,23.06
2022-08-08T19:10:41.199Z,22.91
2022-08-08T19:13:10.871Z,22.86
2022-08-08T19:15:48.726Z,22.86
2022-08-08T19:18:33.362Z,22.81
2022-08-08T19:21:29.466Z,22.64
2022-08-08T19:23:56.108Z,22.55
2022-08-08T19:26:30.415Z,22.29
2022-08-08T19:28:59.160Z,22.28
2022-08-08T19:31:31.623Z,21.96
2022-08-08T19:34:35.605Z,21.96
2022-08-08T19:36:55.360Z,21.91
2022-08-08T19:39:26.084Z,21.82
2022-08-08T19:42:06.712Z,21.67
2022-08-08T19:44:45.965Z,21.70
2022-08-08T19:47:16.544Z,21.29
2022-08-08T19:49:59.654Z,21.45
2022-08-08T19:52:35.493Z,21.40
2022-08-08T19:55:08.895Z,21.35
2022-08-08T19:57:37.988Z,21.25
2022-08-08T20:00:11.514Z,21.03
2022-08-08T20:02:56.559Z,20.96
2022-08-08T20:06:14.323Z,20.79
2022-08-08T20:08:27.946Z,20.68
2022-08-08T20:10:59.740Z,20.70
2022-08-08T20:14:31.644Z,20.69
2022-08-08T20:16:17.004Z,20.70
2022-08-08T20:18:52.078Z,20.70
2022-08-08T20:21:25.069Z,20.65
2022-08-08T20:23:54.181Z,20.42
2022-08-08T20:26:29.927Z,20.40
2022-08-08T20:29:03.430Z,20.33
2022-08-08T20:31:47.332Z,20.27
2022-08-08T20:34:30.628Z,20.11
2022-08-08T20:36:59.942Z,20.16
2022-08-08T20:39:39.587Z,20.25
2022-08-08T20:42:15.729Z,20.42
2022-08-08T20:44:44.807Z,20.43
2022-08-08T20:47:22.730Z,20.28
2022-08-08T20:49:50.944Z,20.23
2022-08-08T20:52:22.377Z,20.16
2022-08-08T20:54:51.544Z,20.20
2022-08-08T20:57:21.110Z,20.04
2022-08-08T20:59:51.440Z,19.94
2022-08-08T21:02:25.904Z,19.86
2022-08-08T21:04:57.293Z,19.90
2022-08-08T21:07:31.303Z,20.02
2022-08-08T21:10:16.730Z,20.03
2022-08-08T21:12:46.778Z,20.42
2022-08-08T21:16:04.212Z,20.30
2022-08-08T21:18:09.587Z,20.28
2022-08-08T21:20:39.601Z,20.19
2022-08-08T21:23:13.174Z,20.08
2022-08-08T21:25:46.027Z,19.96
2022-08-08T21:28:33.351Z,19.78
2022-08-08T21:31:21.731Z,19.67
2022-08-08T21:33:50.211Z,19.49
2022-08-08T21:36:20.777Z,19.36
2022-08-08T21:38:50.300Z,19.32
2022-08-08T21:41:28.871Z,19.65
2022-08-08T21:44:05.978Z,19.66
2022-08-08T21:48:07.245Z,19.58
2022-08-08T21:49:23.675Z,19.48
2022-08-08T21:54:23.208Z,19.42
2022-08-08T21:55:03.478Z,19.25
2022-08-08T21:57:42.124Z,19.19
2022-08-08T22:00:14.350Z,19.08
2022-08-08T22:02:44.441Z,19.04
2022-08-08T22:05:14.982Z,18.96
2022-08-08T22:07:47.416Z,19.00
2022-08-08T22:10:32.319Z,18.88
2022-08-08T22:13:18.858Z,18.75
2022-08-08T22:15:59.238Z,18.66
2022-08-08T22:18:31.153Z,18.58
2022-08-08T22:21:01.602Z,18.73
2022-08-08T22:23:41.109Z,18.75
2022-08-08T22:26:29.064Z,18.79
2022-08-08T22:29:04.596Z,18.62
2022-08-08T22:31:41.938Z,18.75
2022-08-08T22:34:15.370Z,18.60
2022-08-08T22:36:43.556Z,18.63
2022-08-08T22:39:18.887Z,18.66
2022-08-08T22:41:49.308Z,18.66
2022-08-08T22:44:17.556Z,18.73
2022-08-08T22:46:45.866Z,18.81
2022-08-08T22:49:20.038Z,18.78
2022-08-08T22:51:48.315Z,18.83
2022-08-08T22:54:30.757Z,18.92
2022-08-08T22:57:08.738Z,18.69
2022-08-08T22:59:48.454Z,18.71
2022-08-08T23:02:28.545Z,18.72
2022-08-08T23:04:58.591Z,18.65
2022-08-08T23:07:51.687Z,18.70
2022-08-08T23:10:25.418Z,18.55
2022-08-08T23:12:55.112Z,18.67
2022-08-08T23:16:39.771Z,18.60
2022-08-08T23:18:12.385Z,18.47
2022-08-08T23:20:43.231Z,18.41
2022-08-08T23:23:12.372Z,18.40
2022-08-08T23:25:48.025Z,18.36
2022-08-08T23:28:18.767Z,18.36
2022-08-08T23:30:47.369Z,18.32
2022-08-08T23:33:21.218Z,18.28
2022-08-08T23:36:08.921Z,18.36
2022-08-08T23:38:44.282Z,18.35
2022-08-08T23:41:24.435Z,18.32
2022-08-08T23:43:54.399Z,18.30
2022-08-08T23:49:04.762Z,18.24
2022-08-08T23:49:14.921Z,18.20
2022-08-08T23:52:04.530Z,18.02
2022-08-08T23:54:42.477Z,17.94
2022-08-08T23:57:26.694Z,17.97
